sensor_id;sensor_type;location;lat;lon;timestamp;pressure;altitude;pressure_sealevel;temperature;humidity
59789;BME280;47353;51.614;5.530;2023-01-27T00:00:58;102388.34;;;4.12;100.00
59789;BME280;47353;51.614;5.530;2023-01-27T00:03:23;102390.88;;;4.13;100.00
59789;BME280;47353;51.614;5.530;2023-01-27T00:05:49;102382.88;;;4.12;100.00
59789;BME280;47353;51.614;5.530;2023-01-27T00:08:16;102381.81;;;4.13;100.00
59789;BME280;47353;51.614;5.530;2023-01-27T00:10:41;102378.41;;;4.11;100.00
59789;BME280;47353;51.614;5.530;2023-01-27T00:13:10;102384.09;;;4.09;100.00
59789;BME280;47353;51.614;5.530;2023-01-27T00:15:51;102377.31;;;4.05;100.00
59789;BME280;47353;51.614;5.530;2023-01-27T00:18:17;102383.63;;;4.06;100.00
59789;BME280;47353;51.614;5.530;2023-01-27T00:20:42;102381.75;;;4.06;100.00
59789;BME280;47353;51.614;5.530;2023-01-27T00:23:27;102383.44;;;4.07;100.00
59789;BME280;47353;51.614;5.530;2023-01-27T00:26:13;102381.28;;;4.03;100.00
59789;BME280;47353;51.614;5.530;2023-01-27T00:28:39;102382.13;;;4.03;100.00
59789;BME280;47353;51.614;5.530;2023-01-27T00:31:06;102384.03;;;4.03;100.00
59789;BME280;47353;51.614;5.530;2023-01-27T00:33:51;102376.41;;;3.98;100.00
59789;BME280;47353;51.614;5.530;2023-01-27T00:36:18;102391.59;;;4.01;100.00
59789;BME280;47353;51.614;5.530;2023-01-27T00:38:44;102389.69;;;4.01;100.00
59789;BME280;47353;51.614;5.530;2023-01-27T00:41:09;102384.41;;;4.00;100.00
59789;BME280;47353;51.614;5.530;2023-01-27T00:43:48;102383.13;;;3.96;100.00
59789;BME280;47353;51.614;5.530;2023-01-27T00:46:15;102387.75;;;3.95;100.00
59789;BME280;47353;51.614;5.530;2023-01-27T00:48:41;102389.84;;;3.93;100.00
59789;BME280;47353;51.614;5.530;2023-01-27T00:51:07;102382.00;;;3.90;100.00
59789;BME280;47353;51.614;5.530;2023-01-27T00:53:32;102391.72;;;3.93;100.00
59789;BME280;47353;51.614;5.530;2023-01-27T00:55:58;102384.75;;;3.90;100.00
59789;BME280;47353;51.614;5.530;2023-01-27T00:58:27;102391.06;;;3.91;100.00
59789;BME280;47353;51.614;5.530;2023-01-27T01:00:53;102395.69;;;3.90;100.00
59789;BME280;47353;51.614;5.530;2023-01-27T01:03:19;102394.22;;;3.88;100.00
59789;BME280;47353;51.614;5.530;2023-01-27T01:05:44;102393.53;;;3.86;100.00
59789;BME280;47353;51.614;5.530;2023-01-27T01:08:10;102392.31;;;3.88;100.00
59789;BME280;47353;51.614;5.530;2023-01-27T01:10:38;102388.72;;;3.88;100.00
59789;BME280;47353;51.614;5.530;2023-01-27T01:13:05;102390.81;;;3.86;100.00
59789;BME280;47353;51.614;5.530;2023-01-27T01:15:35;102399.03;;;3.86;100.00
59789;BME280;47353;51.614;5.530;2023-01-27T01:18:02;102401.13;;;3.84;100.00
59789;BME280;47353;51.614;5.530;2023-01-27T01:20:28;102399.81;;;3.80;100.00
59789;BME280;47353;51.614;5.530;2023-01-27T01:22:54;102408.88;;;3.80;99.77
59789;BME280;47353;51.614;5.530;2023-01-27T01:25:19;102410.94;;;3.78;99.53
59789;BME280;47353;51.614;5.530;2023-01-27T01:27:44;102413.69;;;3.78;99.55
59789;BME280;47353;51.614;5.530;2023-01-27T01:30:10;102415.81;;;3.76;99.69
59789;BME280;47353;51.614;5.530;2023-01-27T01:32:36;102407.97;;;3.73;99.71
59789;BME280;47353;51.614;5.530;2023-01-27T01:35:02;102409.84;;;3.73;99.48
59789;BME280;47353;51.614;5.530;2023-01-27T01:37:27;102412.97;;;3.70;99.30
59789;BME280;47353;51.614;5.530;2023-01-27T01:39:52;102427.16;;;3.73;99.16
59789;BME280;47353;51.614;5.530;2023-01-27T01:42:18;102423.06;;;3.69;98.89
59789;BME280;47353;51.614;5.530;2023-01-27T01:44:43;102422.06;;;3.70;98.93
59789;BME280;47353;51.614;5.530;2023-01-27T01:47:14;102428.34;;;3.71;98.73
59789;BME280;47353;51.614;5.530;2023-01-27T01:49:41;102413.19;;;3.68;98.64
59789;BME280;47353;51.614;5.530;2023-01-27T01:52:14;102420.16;;;3.71;98.87
59789;BME280;47353;51.614;5.530;2023-01-27T01:54:50;102414.84;;;3.69;98.26
59789;BME280;47353;51.614;5.530;2023-01-27T01:57:22;102410.44;;;3.68;98.62
59789;BME280;47353;51.614;5.530;2023-01-27T01:59:53;102414.19;;;3.67;98.67
59789;BME280;47353;51.614;5.530;2023-01-27T02:02:21;102411.03;;;3.64;98.89
59789;BME280;47353;51.614;5.530;2023-01-27T02:04:56;102411.66;;;3.66;98.95
59789;BME280;47353;51.614;5.530;2023-01-27T02:07:33;102419.69;;;3.67;99.24
59789;BME280;47353;51.614;5.530;2023-01-27T02:10:02;102419.03;;;3.65;99.36
59789;BME280;47353;51.614;5.530;2023-01-27T02:12:28;102421.50;;;3.60;99.52
59789;BME280;47353;51.614;5.530;2023-01-27T02:14:53;102426.78;;;3.62;99.61
59789;BME280;47353;51.614;5.530;2023-01-27T02:17:19;102426.78;;;3.62;99.81
59789;BME280;47353;51.614;5.530;2023-01-27T02:19:57;102424.91;;;3.62;100.00
59789;BME280;47353;51.614;5.530;2023-01-27T02:25:11;102428.84;;;3.60;100.00
59789;BME280;47353;51.614;5.530;2023-01-27T02:27:40;102428.84;;;3.60;100.00
59789;BME280;47353;51.614;5.530;2023-01-27T02:30:06;102430.97;;;3.58;100.00
59789;BME280;47353;51.614;5.530;2023-01-27T02:32:32;102437.25;;;3.58;100.00
59789;BME280;47353;51.614;5.530;2023-01-27T02:34:59;102439.19;;;3.58;100.00
59789;BME280;47353;51.614;5.530;2023-01-27T02:37:25;102437.66;;;3.55;99.97
59789;BME280;47353;51.614;5.530;2023-01-27T02:39:51;102441.91;;;3.58;99.81
59789;BME280;47353;51.614;5.530;2023-01-27T02:42:18;102447.78;;;3.55;100.00
59789;BME280;47353;51.614;5.530;2023-01-27T02:44:43;102450.69;;;3.53;99.98
59789;BME280;47353;51.614;5.530;2023-01-27T02:47:09;102451.53;;;3.54;100.00
59789;BME280;47353;51.614;5.530;2023-01-27T02:49:34;102447.97;;;3.53;100.00
59789;BME280;47353;51.614;5.530;2023-01-27T02:51:59;102451.91;;;3.51;100.00
59789;BME280;47353;51.614;5.530;2023-01-27T02:54:26;102454.47;;;3.52;99.94
59789;BME280;47353;51.614;5.530;2023-01-27T02:56:53;102441.16;;;3.49;99.95
59789;BME280;47353;51.614;5.530;2023-01-27T02:59:18;102442.88;;;3.50;99.91
59789;BME280;47353;51.614;5.530;2023-01-27T03:01:43;102447.09;;;3.53;100.00
59789;BME280;47353;51.614;5.530;2023-01-27T03:04:09;102447.31;;;3.51;100.00
59789;BME280;47353;51.614;5.530;2023-01-27T03:06:36;102448.34;;;3.50;99.93
59789;BME280;47353;51.614;5.530;2023-01-27T03:09:03;102448.34;;;3.50;99.13
59789;BME280;47353;51.614;5.530;2023-01-27T03:11:28;102459.47;;;3.48;98.84
59789;BME280;47353;51.614;5.530;2023-01-27T03:14:12;102456.72;;;3.48;98.90
59789;BME280;47353;51.614;5.530;2023-01-27T03:16:38;102455.22;;;3.46;99.18
59789;BME280;47353;51.614;5.530;2023-01-27T03:19:22;102454.19;;;3.47;99.55
59789;BME280;47353;51.614;5.530;2023-01-27T03:21:47;102463.25;;;3.47;99.62
59789;BME280;47353;51.614;5.530;2023-01-27T03:24:17;102468.91;;;3.46;99.54
59789;BME280;47353;51.614;5.530;2023-01-27T03:26:42;102463.25;;;3.47;99.96
59789;BME280;47353;51.614;5.530;2023-01-27T03:29:08;102454.38;;;3.45;100.00
59789;BME280;47353;51.614;5.530;2023-01-27T03:31:51;102455.63;;;3.43;100.00
59789;BME280;47353;51.614;5.530;2023-01-27T03:34:17;102460.41;;;3.41;100.00
59789;BME280;47353;51.614;5.530;2023-01-27T03:36:42;102458.34;;;3.43;100.00
59789;BME280;47353;51.614;5.530;2023-01-27T03:39:28;102468.44;;;3.42;100.00
59789;BME280;47353;51.614;5.530;2023-01-27T03:42:12;102467.63;;;3.42;100.00
59789;BME280;47353;51.614;5.530;2023-01-27T03:44:56;102476.66;;;3.42;100.00
59789;BME280;47353;51.614;5.530;2023-01-27T03:47:40;102478.75;;;3.40;100.00
59789;BME280;47353;51.614;5.530;2023-01-27T03:50:06;102476.84;;;3.41;100.00
59789;BME280;47353;51.614;5.530;2023-01-27T03:52:36;102480.44;;;3.41;100.00
59789;BME280;47353;51.614;5.530;2023-01-27T03:55:01;102487.97;;;3.39;100.00
59789;BME280;47353;51.614;5.530;2023-01-27T03:57:28;102484.22;;;3.40;100.00
59789;BME280;47353;51.614;5.530;2023-01-27T03:59:53;102486.97;;;3.40;100.00
59789;BME280;47353;51.614;5.530;2023-01-27T04:02:19;102483.56;;;3.38;100.00
59789;BME280;47353;51.614;5.530;2023-01-27T04:05:03;102493.44;;;3.39;100.00
59789;BME280;47353;51.614;5.530;2023-01-27T04:07:46;102478.09;;;3.38;100.00
59789;BME280;47353;51.614;5.530;2023-01-27T04:10:12;102483.06;;;3.35;100.00
59789;BME280;47353;51.614;5.530;2023-01-27T04:12:37;102485.63;;;3.36;100.00
59789;BME280;47353;51.614;5.530;2023-01-27T04:15:03;102482.06;;;3.36;100.00
59789;BME280;47353;51.614;5.530;2023-01-27T04:17:28;102482.13;;;3.42;100.00
59789;BME280;47353;51.614;5.530;2023-01-27T04:19:54;102487.34;;;3.37;100.00
59789;BME280;47353;51.614;5.530;2023-01-27T04:22:20;102470.53;;;3.40;100.00
59789;BME280;47353;51.614;5.530;2023-01-27T04:24:46;102481.38;;;3.34;100.00
59789;BME280;47353;51.614;5.530;2023-01-27T04:27:13;102475.25;;;3.32;100.00
59789;BME280;47353;51.614;5.530;2023-01-27T04:29:44;102468.94;;;3.31;100.00
59789;BME280;47353;51.614;5.530;2023-01-27T04:32:11;102485.19;;;3.33;100.00
59789;BME280;47353;51.614;5.530;2023-01-27T04:34:37;102484.69;;;3.29;100.00
59789;BME280;47353;51.614;5.530;2023-01-27T04:37:03;102490.38;;;3.28;100.00
59789;BME280;47353;51.614;5.530;2023-01-27T04:39:29;102497.53;;;3.29;100.00
59789;BME280;47353;51.614;5.530;2023-01-27T04:41:55;102492.53;;;3.32;100.00
59789;BME280;47353;51.614;5.530;2023-01-27T04:44:21;102484.69;;;3.29;100.00
59789;BME280;47353;51.614;5.530;2023-01-27T04:46:47;102494.13;;;3.27;100.00
59789;BME280;47353;51.614;5.530;2023-01-27T04:49:12;102500.63;;;3.26;100.00
59789;BME280;47353;51.614;5.530;2023-01-27T04:51:38;102494.31;;;3.25;100.00
59789;BME280;47353;51.614;5.530;2023-01-27T04:54:04;102495.53;;;3.23;100.00
59789;BME280;47353;51.614;5.530;2023-01-27T04:56:35;102497.41;;;3.22;100.00
59789;BME280;47353;51.614;5.530;2023-01-27T04:59:03;102500.16;;;3.22;100.00
59789;BME280;47353;51.614;5.530;2023-01-27T05:01:29;102503.28;;;3.19;100.00
59789;BME280;47353;51.614;5.530;2023-01-27T05:03:54;102500.34;;;3.21;100.00
59789;BME280;47353;51.614;5.530;2023-01-27T05:06:20;102508.38;;;3.22;100.00
59789;BME280;47353;51.614;5.530;2023-01-27T05:08:46;102506.69;;;3.21;100.00
59789;BME280;47353;51.614;5.530;2023-01-27T05:11:12;102508.66;;;3.27;100.00
59789;BME280;47353;51.614;5.530;2023-01-27T05:13:38;102512.81;;;3.23;100.00
59789;BME280;47353;51.614;5.530;2023-01-27T05:16:06;102521.03;;;3.23;100.00
59789;BME280;47353;51.614;5.530;2023-01-27T05:18:31;102508.19;;;3.24;100.00
59789;BME280;47353;51.614;5.530;2023-01-27T05:20:58;102514.69;;;3.23;100.00
59789;BME280;47353;51.614;5.530;2023-01-27T05:23:24;102514.31;;;3.26;100.00
59789;BME280;47353;51.614;5.530;2023-01-27T05:26:22;102513.84;;;3.22;99.84
59789;BME280;47353;51.614;5.530;2023-01-27T05:28:48;102518.94;;;3.25;99.49
59789;BME280;47353;51.614;5.530;2023-01-27T05:31:17;102522.91;;;3.23;98.96
59789;BME280;47353;51.614;5.530;2023-01-27T05:33:43;102523.19;;;3.28;98.40
59789;BME280;47353;51.614;5.530;2023-01-27T05:36:12;102524.41;;;3.25;98.76
59789;BME280;47353;51.614;5.530;2023-01-27T05:38:38;102525.44;;;3.24;99.05
59789;BME280;47353;51.614;5.530;2023-01-27T05:41:05;102524.41;;;3.25;98.75
59789;BME280;47353;51.614;5.530;2023-01-27T05:43:32;102537.25;;;3.25;99.22
59789;BME280;47353;51.614;5.530;2023-01-27T05:46:12;102535.53;;;3.24;99.54
59789;BME280;47353;51.614;5.530;2023-01-27T05:48:40;102527.50;;;3.22;99.64
59789;BME280;47353;51.614;5.530;2023-01-27T05:51:06;102538.09;;;3.25;99.85
59789;BME280;47353;51.614;5.530;2023-01-27T05:53:32;102536.41;;;3.24;99.76
59789;BME280;47353;51.614;5.530;2023-01-27T05:55:58;102533.47;;;3.26;99.76
59789;BME280;47353;51.614;5.530;2023-01-27T05:58:23;102541.97;;;3.31;99.58
59789;BME280;47353;51.614;5.530;2023-01-27T06:00:50;102536.03;;;3.27;100.00
59789;BME280;47353;51.614;5.530;2023-01-27T06:03:16;102544.41;;;3.26;99.78
59789;BME280;47353;51.614;5.530;2023-01-27T06:05:49;102539.25;;;3.31;99.78
59789;BME280;47353;51.614;5.530;2023-01-27T06:08:14;102548.00;;;3.26;99.49
59789;BME280;47353;51.614;5.530;2023-01-27T06:10:40;102543.38;;;3.27;99.75
59789;BME280;47353;51.614;5.530;2023-01-27T06:13:05;102543.03;;;3.30;100.00
59789;BME280;47353;51.614;5.530;2023-01-27T06:15:31;102560.09;;;3.32;99.99
59789;BME280;47353;51.614;5.530;2023-01-27T06:17:56;102543.19;;;3.28;100.00
59789;BME280;47353;51.614;5.530;2023-01-27T06:20:21;102550.84;;;3.33;99.66
59789;BME280;47353;51.614;5.530;2023-01-27T06:22:47;102560.47;;;3.29;99.91
59789;BME280;47353;51.614;5.530;2023-01-27T06:25:14;102559.44;;;3.30;100.00
59789;BME280;47353;51.614;5.530;2023-01-27T06:27:40;102553.50;;;3.26;100.00
59789;BME280;47353;51.614;5.530;2023-01-27T06:30:06;102563.00;;;3.30;100.00
59789;BME280;47353;51.614;5.530;2023-01-27T06:32:35;102571.88;;;3.32;99.96
59789;BME280;47353;51.614;5.530;2023-01-27T06:35:00;102559.25;;;3.31;99.95
59789;BME280;47353;51.614;5.530;2023-01-27T06:37:28;102567.47;;;3.31;99.92
59789;BME280;47353;51.614;5.530;2023-01-27T06:39:53;102553.78;;;3.31;99.84
59789;BME280;47353;51.614;5.530;2023-01-27T06:42:19;102557.34;;;3.32;100.00
59789;BME280;47353;51.614;5.530;2023-01-27T06:44:44;102556.72;;;3.30;100.00
59789;BME280;47353;51.614;5.530;2023-01-27T06:47:09;102561.31;;;3.29;100.00
59789;BME280;47353;51.614;5.530;2023-01-27T06:49:35;102562.19;;;3.30;100.00
59789;BME280;47353;51.614;5.530;2023-01-27T06:52:00;102561.31;;;3.29;100.00
59789;BME280;47353;51.614;5.530;2023-01-27T06:54:25;102562.19;;;3.30;100.00
59789;BME280;47353;51.614;5.530;2023-01-27T06:56:51;102567.66;;;3.30;100.00
59789;BME280;47353;51.614;5.530;2023-01-27T06:59:16;102563.88;;;3.31;100.00
59789;BME280;47353;51.614;5.530;2023-01-27T07:01:41;102564.91;;;3.30;99.88
59789;BME280;47353;51.614;5.530;2023-01-27T07:04:07;102565.75;;;3.30;99.94
59789;BME280;47353;51.614;5.530;2023-01-27T07:06:32;102576.69;;;3.30;99.68
59789;BME280;47353;51.614;5.530;2023-01-27T07:08:57;102574.81;;;3.31;99.59
59789;BME280;47353;51.614;5.530;2023-01-27T07:11:23;102570.53;;;3.28;99.73
59789;BME280;47353;51.614;5.530;2023-01-27T07:13:49;102579.25;;;3.32;99.64
59789;BME280;47353;51.614;5.530;2023-01-27T07:16:14;102571.03;;;3.32;99.35
59789;BME280;47353;51.614;5.530;2023-01-27T07:18:40;102574.63;;;3.32;99.28
59789;BME280;47353;51.614;5.530;2023-01-27T07:21:05;102569.81;;;3.34;99.33
59789;BME280;47353;51.614;5.530;2023-01-27T07:23:31;102576.97;;;3.35;99.21
59789;BME280;47353;51.614;5.530;2023-01-27T07:25:56;102582.47;;;3.35;99.02
59789;BME280;47353;51.614;5.530;2023-01-27T07:28:22;102578.84;;;3.35;98.86
59789;BME280;47353;51.614;5.530;2023-01-27T07:30:47;102581.41;;;3.36;98.90
59789;BME280;47353;51.614;5.530;2023-01-27T07:33:13;102579.91;;;3.34;99.10
59789;BME280;47353;51.614;5.530;2023-01-27T07:35:41;102585.19;;;3.35;99.17
59789;BME280;47353;51.614;5.530;2023-01-27T07:38:07;102594.06;;;3.37;98.79
59789;BME280;47353;51.614;5.530;2023-01-27T07:40:33;102595.75;;;3.38;98.88
59789;BME280;47353;51.614;5.530;2023-01-27T07:43:00;102595.09;;;3.36;98.92
59789;BME280;47353;51.614;5.530;2023-01-27T07:45:26;102601.44;;;3.37;98.95
59789;BME280;47353;51.614;5.530;2023-01-27T07:47:52;102600.38;;;3.38;98.94
59789;BME280;47353;51.614;5.530;2023-01-27T07:50:17;102603.59;;;3.41;98.92
59789;BME280;47353;51.614;5.530;2023-01-27T07:52:43;102586.44;;;3.33;98.89
59789;BME280;47353;51.614;5.530;2023-01-27T07:55:08;102602.56;;;3.42;98.92
59789;BME280;47353;51.614;5.530;2023-01-27T07:57:34;102606.16;;;3.43;98.96
59789;BME280;47353;51.614;5.530;2023-01-27T07:59:59;102611.63;;;3.43;99.05
59789;BME280;47353;51.614;5.530;2023-01-27T08:02:24;102615.03;;;3.45;98.96
59789;BME280;47353;51.614;5.530;2023-01-27T08:04:52;102611.25;;;3.46;99.17
59789;BME280;47353;51.614;5.530;2023-01-27T08:07:18;102602.19;;;3.45;99.18
59789;BME280;47353;51.614;5.530;2023-01-27T08:09:44;102611.72;;;3.50;99.12
59789;BME280;47353;51.614;5.530;2023-01-27T08:12:10;102608.81;;;3.51;98.81
59789;BME280;47353;51.614;5.530;2023-01-27T08:14:35;102608.63;;;3.53;98.58
59789;BME280;47353;51.614;5.530;2023-01-27T08:17:01;102613.03;;;3.54;98.53
59789;BME280;47353;51.614;5.530;2023-01-27T08:19:26;102614.75;;;3.55;98.12
59789;BME280;47353;51.614;5.530;2023-01-27T08:21:51;102614.94;;;3.53;98.10
59789;BME280;47353;51.614;5.530;2023-01-27T08:24:17;102619.38;;;3.54;98.42
59789;BME280;47353;51.614;5.530;2023-01-27T08:26:43;102619.00;;;3.57;98.09
59789;BME280;47353;51.614;5.530;2023-01-27T08:29:08;102614.38;;;3.58;98.01
59789;BME280;47353;51.614;5.530;2023-01-27T08:31:34;102614.56;;;3.56;98.03
59789;BME280;47353;51.614;5.530;2023-01-27T08:33:59;102632.59;;;3.65;97.53
59789;BME280;47353;51.614;5.530;2023-01-27T08:36:24;102623.72;;;3.63;97.49
59789;BME280;47353;51.614;5.530;2023-01-27T08:38:50;102617.00;;;3.66;97.66
59789;BME280;47353;51.614;5.530;2023-01-27T08:41:20;102622.09;;;3.69;97.72
59789;BME280;47353;51.614;5.530;2023-01-27T08:43:46;102625.69;;;3.69;97.53
59789;BME280;47353;51.614;5.530;2023-01-27T08:46:12;102638.19;;;3.72;97.32
59789;BME280;47353;51.614;5.530;2023-01-27T08:48:38;102634.22;;;3.74;97.11
59789;BME280;47353;51.614;5.530;2023-01-27T08:51:04;102640.94;;;3.72;96.81
59789;BME280;47353;51.614;5.530;2023-01-27T08:53:31;102647.03;;;3.74;96.93
59789;BME280;47353;51.614;5.530;2023-01-27T08:55:58;102654.06;;;3.76;96.58
59789;BME280;47353;51.614;5.530;2023-01-27T08:58:24;102656.13;;;3.74;95.57
59789;BME280;47353;51.614;5.530;2023-01-27T09:00:49;102665.19;;;3.75;95.88
59789;BME280;47353;51.614;5.530;2023-01-27T09:03:15;102663.28;;;3.75;95.93
59789;BME280;47353;51.614;5.530;2023-01-27T09:05:40;102666.03;;;3.75;95.47
59789;BME280;47353;51.614;5.530;2023-01-27T09:08:07;102661.69;;;3.81;95.71
59789;BME280;47353;51.614;5.530;2023-01-27T09:10:40;102648.38;;;3.92;95.99
59789;BME280;47353;51.614;5.530;2023-01-27T09:13:07;102651.28;;;4.05;95.73
59789;BME280;47353;51.614;5.530;2023-01-27T09:15:34;102658.00;;;4.17;95.27
59789;BME280;47353;51.614;5.530;2023-01-27T09:18:00;102654.56;;;4.30;94.89
59789;BME280;47353;51.614;5.530;2023-01-27T09:20:25;102657.41;;;4.36;94.25
59789;BME280;47353;51.614;5.530;2023-01-27T09:22:53;102654.06;;;4.41;93.63
59789;BME280;47353;51.614;5.530;2023-01-27T09:25:19;102659.03;;;4.52;93.30
59789;BME280;47353;51.614;5.530;2023-01-27T09:27:44;102669.31;;;4.64;92.71
59789;BME280;47353;51.614;5.530;2023-01-27T09:30:11;102668.53;;;4.70;91.93
59789;BME280;47353;51.614;5.530;2023-01-27T09:32:37;102670.44;;;4.70;91.47
59789;BME280;47353;51.614;5.530;2023-01-27T09:35:02;102672.44;;;4.61;91.24
59789;BME280;47353;51.614;5.530;2023-01-27T09:37:29;102686.09;;;4.55;90.73
59789;BME280;47353;51.614;5.530;2023-01-27T09:39:59;102678.81;;;4.47;90.79
59789;BME280;47353;51.614;5.530;2023-01-27T09:42:39;102688.09;;;4.46;90.99
59789;BME280;47353;51.614;5.530;2023-01-27T09:48:00;102684.72;;;4.30;90.51
59789;BME280;47353;51.614;5.530;2023-01-27T09:56:05;102682.56;;;4.25;91.69
59789;BME280;47353;51.614;5.530;2023-01-27T10:04:15;102685.06;;;4.41;91.22
59789;BME280;47353;51.614;5.530;2023-01-27T10:17:50;102683.38;;;5.39;88.59
59789;BME280;47353;51.614;5.530;2023-01-27T10:26:17;102677.59;;;5.55;86.00
59789;BME280;47353;51.614;5.530;2023-01-27T10:28:50;102681.91;;;5.43;85.85
59789;BME280;47353;51.614;5.530;2023-01-27T10:31:25;102679.63;;;5.47;85.84
59789;BME280;47353;51.614;5.530;2023-01-27T10:33:56;102683.19;;;5.41;85.81
59789;BME280;47353;51.614;5.530;2023-01-27T10:39:48;102686.00;;;5.54;86.24
59789;BME280;47353;51.614;5.530;2023-01-27T10:45:41;102678.34;;;5.70;85.59
59789;BME280;47353;51.614;5.530;2023-01-27T10:50:34;102679.34;;;5.63;85.11
59789;BME280;47353;51.614;5.530;2023-01-27T10:55:56;102687.81;;;5.40;86.06
59789;BME280;47353;51.614;5.530;2023-01-27T10:59:02;102684.97;;;5.27;86.32
59789;BME280;47353;51.614;5.530;2023-01-27T11:01:33;102692.03;;;5.15;86.37
59789;BME280;47353;51.614;5.530;2023-01-27T11:06:54;102688.09;;;5.03;86.32
59789;BME280;47353;51.614;5.530;2023-01-27T11:09:28;102683.38;;;4.97;86.86
59789;BME280;47353;51.614;5.530;2023-01-27T11:12:00;102680.00;;;4.95;87.40
59789;BME280;47353;51.614;5.530;2023-01-27T11:14:37;102682.88;;;4.87;86.98
59789;BME280;47353;51.614;5.530;2023-01-27T11:17:27;102689.78;;;4.83;87.68
59789;BME280;47353;51.614;5.530;2023-01-27T11:20:03;102676.53;;;4.86;87.44
59789;BME280;47353;51.614;5.530;2023-01-27T11:22:39;102674.38;;;4.82;87.00
59789;BME280;47353;51.614;5.530;2023-01-27T11:25:22;102667.44;;;4.86;87.85
59789;BME280;47353;51.614;5.530;2023-01-27T11:27:58;102669.06;;;5.01;87.54
59789;BME280;47353;51.614;5.530;2023-01-27T11:30:35;102666.84;;;4.90;87.85
59789;BME280;47353;51.614;5.530;2023-01-27T11:36:08;102663.44;;;5.31;86.81
59789;BME280;47353;51.614;5.530;2023-01-27T11:38:34;102664.63;;;5.49;86.08
59789;BME280;47353;51.614;5.530;2023-01-27T11:40:59;102660.13;;;5.63;86.07
59789;BME280;47353;51.614;5.530;2023-01-27T11:43:25;102666.09;;;5.73;85.73
59789;BME280;47353;51.614;5.530;2023-01-27T11:46:00;102666.94;;;5.73;85.46
59789;BME280;47353;51.614;5.530;2023-01-27T11:48:44;102660.59;;;5.73;85.21
59789;BME280;47353;51.614;5.530;2023-01-27T11:51:19;102657.19;;;5.71;85.86
59789;BME280;47353;51.614;5.530;2023-01-27T11:53:50;102654.84;;;5.68;84.90
59789;BME280;47353;51.614;5.530;2023-01-27T11:56:18;102659.72;;;5.66;83.75
59789;BME280;47353;51.614;5.530;2023-01-27T11:58:58;102651.38;;;5.53;84.54
59789;BME280;47353;51.614;5.530;2023-01-27T12:04:22;102655.66;;;5.34;84.20
59789;BME280;47353;51.614;5.530;2023-01-27T12:06:53;102659.59;;;5.25;84.54
59789;BME280;47353;51.614;5.530;2023-01-27T12:09:38;102662.28;;;5.18;84.93
59789;BME280;47353;51.614;5.530;2023-01-27T12:14:52;102652.09;;;5.12;85.25
59789;BME280;47353;51.614;5.530;2023-01-27T12:17:31;102653.97;;;5.12;84.44
59789;BME280;47353;51.614;5.530;2023-01-27T12:20:01;102652.22;;;5.04;85.13
59789;BME280;47353;51.614;5.530;2023-01-27T12:22:33;102654.72;;;4.99;85.03
59789;BME280;47353;51.614;5.530;2023-01-27T12:25:03;102649.03;;;5.01;84.15
59789;BME280;47353;51.614;5.530;2023-01-27T12:27:38;102646.69;;;4.98;84.72
59789;BME280;47353;51.614;5.530;2023-01-27T12:30:07;102647.91;;;5.17;85.60
59789;BME280;47353;51.614;5.530;2023-01-27T12:32:46;102642.38;;;5.38;85.51
59789;BME280;47353;51.614;5.530;2023-01-27T12:35:32;102636.97;;;5.51;83.54
59789;BME280;47353;51.614;5.530;2023-01-27T12:38:02;102630.13;;;5.68;83.42
59789;BME280;47353;51.614;5.530;2023-01-27T12:40:30;102630.16;;;6.02;83.30
59789;BME280;47353;51.614;5.530;2023-01-27T12:43:13;102625.59;;;6.22;83.27
59789;BME280;47353;51.614;5.530;2023-01-27T12:45:40;102624.97;;;6.26;82.40
59789;BME280;47353;51.614;5.530;2023-01-27T12:48:16;102628.84;;;6.38;81.48
59789;BME280;47353;51.614;5.530;2023-01-27T12:50:53;102624.03;;;6.53;80.92
59789;BME280;47353;51.614;5.530;2023-01-27T12:53:20;102629.34;;;6.61;79.07
59789;BME280;47353;51.614;5.530;2023-01-27T13:01:20;102617.06;;;6.57;79.56
59789;BME280;47353;51.614;5.530;2023-01-27T13:03:53;102621.88;;;6.42;79.29
59789;BME280;47353;51.614;5.530;2023-01-27T13:06:26;102620.38;;;6.33;79.59
59789;BME280;47353;51.614;5.530;2023-01-27T13:08:53;102621.19;;;6.27;80.51
59789;BME280;47353;51.614;5.530;2023-01-27T13:11:30;102619.88;;;6.17;79.48
59789;BME280;47353;51.614;5.530;2023-01-27T13:13:57;102613.25;;;6.05;81.04
59789;BME280;47353;51.614;5.530;2023-01-27T13:16:27;102613.69;;;6.08;80.93
59789;BME280;47353;51.614;5.530;2023-01-27T13:18:55;102618.63;;;6.19;81.32
59789;BME280;47353;51.614;5.530;2023-01-27T13:21:25;102610.59;;;6.31;81.02
59789;BME280;47353;51.614;5.530;2023-01-27T13:23:52;102612.75;;;6.29;79.29
59789;BME280;47353;51.614;5.530;2023-01-27T13:26:24;102627.31;;;6.29;80.22
59789;BME280;47353;51.614;5.530;2023-01-27T13:28:55;102612.78;;;6.42;79.71
59789;BME280;47353;51.614;5.530;2023-01-27T13:31:34;102618.28;;;6.42;78.89
59789;BME280;47353;51.614;5.530;2023-01-27T13:34:11;102611.53;;;6.44;78.72
59789;BME280;47353;51.614;5.530;2023-01-27T13:42:20;102619.38;;;6.47;79.15
59789;BME280;47353;51.614;5.530;2023-01-27T13:44:58;102619.56;;;6.46;79.55
59789;BME280;47353;51.614;5.530;2023-01-27T13:47:40;102629.31;;;6.48;79.10
59789;BME280;47353;51.614;5.530;2023-01-27T13:52:54;102628.50;;;6.14;78.88
59789;BME280;47353;51.614;5.530;2023-01-27T13:55:32;102618.78;;;6.11;79.73
59789;BME280;47353;51.614;5.530;2023-01-27T14:00:53;102621.13;;;6.14;80.84
59789;BME280;47353;51.614;5.530;2023-01-27T14:03:49;102617.56;;;6.20;81.79
59789;BME280;47353;51.614;5.530;2023-01-27T14:09:24;102631.06;;;6.09;81.81
59789;BME280;47353;51.614;5.530;2023-01-27T14:12:34;102629.31;;;6.01;81.99
59789;BME280;47353;51.614;5.530;2023-01-27T14:15:35;102627.59;;;6.00;82.25
59789;BME280;47353;51.614;5.530;2023-01-27T14:18:13;102630.41;;;6.07;82.22
59789;BME280;47353;51.614;5.530;2023-01-27T14:28:50;102632.75;;;6.10;81.76
59789;BME280;47353;51.614;5.530;2023-01-27T14:31:24;102624.66;;;6.02;81.07
59789;BME280;47353;51.614;5.530;2023-01-27T14:34:01;102634.31;;;5.91;81.07